createdAt,value
2019-01-29T00:02:23.651Z,22.07
2019-01-29T00:04:50.388Z,26.60
2019-01-29T00:07:17.137Z,25.27
2019-01-29T00:09:43.826Z,20.73
2019-01-29T00:12:10.613Z,15.83
2019-01-29T00:14:37.356Z,16.53
2019-01-29T00:17:04.083Z,21.83
2019-01-29T00:19:30.833Z,27.40
2019-01-29T00:21:58.767Z,26.97
2019-01-29T00:24:25.532Z,26.23
2019-01-29T00:26:52.276Z,28.13
2019-01-29T00:29:19.006Z,25.37
2019-01-29T00:31:45.754Z,23.30
2019-01-29T00:34:12.488Z,23.93
2019-01-29T00:36:39.327Z,20.67
2019-01-29T00:39:05.966Z,20.67
2019-01-29T00:41:32.716Z,26.43
2019-01-29T00:43:59.446Z,25.80
2019-01-29T00:46:26.182Z,27.83
2019-01-29T00:48:53.041Z,25.90
2019-01-29T00:51:19.772Z,23.43
2019-01-29T00:53:46.501Z,28.40
2019-01-29T00:56:13.252Z,26.17
2019-01-29T00:58:40.487Z,22.50
2019-01-29T01:01:07.232Z,22.50
2019-01-29T01:03:33.869Z,30.93
2019-01-29T01:06:00.505Z,25.57
2019-01-29T01:08:27.247Z,26.50
2019-01-29T01:10:53.996Z,26.77
2019-01-29T01:13:20.837Z,27.07
2019-01-29T01:15:47.677Z,24.73
2019-01-29T01:18:14.410Z,26.90
2019-01-29T01:20:41.155Z,28.90
2019-01-29T01:23:07.896Z,26.83
2019-01-29T01:25:34.659Z,31.13
2019-01-29T01:28:01.475Z,20.13
2019-01-29T01:30:28.217Z,25.77
2019-01-29T01:32:54.948Z,24.97
2019-01-29T01:35:21.693Z,25.53
2019-01-29T01:37:48.530Z,22.33
2019-01-29T01:40:15.265Z,22.57
2019-01-29T01:42:42.015Z,18.90
2019-01-29T01:45:08.859Z,21.67
2019-01-29T01:47:35.585Z,22.83
2019-01-29T01:50:02.337Z,24.17
2019-01-29T01:52:29.177Z,16.27
2019-01-29T01:54:55.919Z,24.27
2019-01-29T01:57:22.764Z,25.97
2019-01-29T01:59:49.493Z,22.13
2019-01-29T02:02:16.343Z,22.77
2019-01-29T02:04:43.072Z,23.87
2019-01-29T02:07:09.817Z,23.40
2019-01-29T02:09:36.546Z,24.83
2019-01-29T02:12:03.286Z,18.93
2019-01-29T02:14:30.039Z,20.93
2019-01-29T02:16:56.778Z,22.27
2019-01-29T02:19:23.617Z,23.37
2019-01-29T02:21:50.457Z,20.33
2019-01-29T02:24:17.202Z,24.40
2019-01-29T02:26:44.040Z,26.00
2019-01-29T02:29:10.772Z,23.27
2019-01-29T02:31:37.532Z,20.00
2019-01-29T02:34:04.462Z,24.17
2019-01-29T02:36:31.192Z,22.67
2019-01-29T02:38:58.034Z,23.43
2019-01-29T02:41:24.771Z,26.70
2019-01-29T02:43:51.410Z,24.80
2019-01-29T02:46:18.157Z,21.03
2019-01-29T02:48:45.007Z,25.10
2019-01-29T02:51:11.835Z,24.47
2019-01-29T02:53:38.581Z,25.83
2019-01-29T02:56:05.309Z,22.40
2019-01-29T02:58:32.059Z,17.97
2019-01-29T03:00:58.788Z,24.57
2019-01-29T03:03:25.535Z,25.00
2019-01-29T03:05:52.268Z,26.93
2019-01-29T03:08:18.984Z,19.27
2019-01-29T03:10:45.749Z,24.97
2019-01-29T03:13:12.494Z,29.23
2019-01-29T03:15:39.327Z,22.90
2019-01-29T03:18:05.972Z,23.80
2019-01-29T03:20:32.714Z,23.77
2019-01-29T03:22:59.598Z,22.03
2019-01-29T03:25:26.296Z,23.67
2019-01-29T03:27:53.130Z,26.00
2019-01-29T03:30:19.875Z,19.70
2019-01-29T03:32:46.617Z,23.07
2019-01-29T03:35:13.355Z,21.77
2019-01-29T03:37:40.048Z,14.23
2019-01-29T03:40:06.843Z,16.47
2019-01-29T03:42:33.568Z,22.50
2019-01-29T03:45:00.308Z,18.57
2019-01-29T03:47:27.047Z,18.70
2019-01-29T03:49:53.789Z,16.87
2019-01-29T03:52:20.630Z,16.87
2019-01-29T03:54:47.368Z,13.53
2019-01-29T03:57:14.110Z,15.33
2019-01-29T03:59:40.905Z,15.60
2019-01-29T04:02:07.692Z,15.43
2019-01-29T04:04:34.522Z,16.40
2019-01-29T04:07:01.158Z,13.43
2019-01-29T04:09:27.801Z,17.50
2019-01-29T04:11:54.542Z,17.17
2019-01-29T04:14:21.273Z,18.77
2019-01-29T04:16:48.018Z,19.57
2019-01-29T04:19:14.762Z,20.77
2019-01-29T04:21:41.490Z,15.57
2019-01-29T04:24:08.234Z,17.47
2019-01-29T04:26:34.971Z,17.23
2019-01-29T04:29:01.814Z,12.57
2019-01-29T04:31:28.553Z,13.07
2019-01-29T04:33:55.339Z,12.77
2019-01-29T04:36:22.200Z,13.30
2019-01-29T04:38:48.882Z,19.37
2019-01-29T04:41:15.716Z,15.83
2019-01-29T04:43:42.409Z,14.70
2019-01-29T04:46:09.102Z,12.17
2019-01-29T04:48:35.829Z,14.20
2019-01-29T04:51:02.576Z,8.93
2019-01-29T04:53:29.416Z,16.47
2019-01-29T04:55:56.158Z,15.60
2019-01-29T04:58:22.852Z,20.50
2019-01-29T05:00:49.536Z,15.57
2019-01-29T05:03:16.235Z,15.40
2019-01-29T05:05:43.218Z,11.77
2019-01-29T05:08:09.939Z,9.37
2019-01-29T05:10:36.701Z,15.67
2019-01-29T05:13:03.438Z,12.73
2019-01-29T05:15:30.167Z,13.00
2019-01-29T05:17:57.323Z,13.20
2019-01-29T05:20:24.054Z,16.57
2019-01-29T05:22:50.697Z,14.60
2019-01-29T05:25:17.437Z,12.97
2019-01-29T05:27:44.169Z,12.70
2019-01-29T05:30:10.908Z,15.50
2019-01-29T05:32:37.546Z,16.23
2019-01-29T05:35:04.299Z,17.57
2019-01-29T05:37:31.139Z,11.70
2019-01-29T05:39:57.872Z,13.73
2019-01-29T05:42:24.716Z,15.47
2019-01-29T05:44:51.662Z,14.97
2019-01-29T05:47:18.390Z,11.80
2019-01-29T05:49:45.143Z,14.73
2019-01-29T05:52:12.111Z,14.63
2019-01-29T05:54:38.930Z,14.47
2019-01-29T05:57:05.664Z,19.40
2019-01-29T05:59:32.396Z,17.47
2019-01-29T06:01:59.145Z,19.13
2019-01-29T06:04:25.882Z,9.03
2019-01-29T06:06:52.716Z,12.47
2019-01-29T06:09:19.351Z,13.67
2019-01-29T06:11:46.299Z,15.17
2019-01-29T06:14:13.038Z,13.40
2019-01-29T06:16:39.775Z,22.07
2019-01-29T06:19:06.514Z,18.50
2019-01-29T06:21:33.258Z,17.13
2019-01-29T06:24:00.191Z,13.53
2019-01-29T06:26:27.266Z,15.17
2019-01-29T06:28:54.119Z,12.67
2019-01-29T06:31:20.934Z,15.03
2019-01-29T06:33:48.102Z,13.93
2019-01-29T06:36:15.481Z,12.67
2019-01-29T06:38:42.713Z,12.57
2019-01-29T06:41:09.930Z,10.80
2019-01-29T06:43:37.372Z,14.93
2019-01-29T06:46:04.654Z,11.97
2019-01-29T06:48:31.379Z,14.73
2019-01-29T06:50:58.128Z,11.30
2019-01-29T06:53:24.866Z,13.47
2019-01-29T06:55:51.701Z,14.00
2019-01-29T06:58:18.437Z,9.67
2019-01-29T07:00:45.186Z,13.20
2019-01-29T07:03:11.931Z,12.73
2019-01-29T07:05:38.624Z,13.70
2019-01-29T07:08:05.418Z,11.10
2019-01-29T07:10:32.248Z,10.80
2019-01-29T07:12:58.982Z,11.70
2019-01-29T07:15:25.728Z,10.47
2019-01-29T07:17:52.466Z,9.73
2019-01-29T07:20:19.306Z,13.70
2019-01-29T07:22:46.045Z,10.30
2019-01-29T07:25:12.778Z,10.57
2019-01-29T07:27:39.520Z,11.37
2019-01-29T07:30:06.259Z,11.83
2019-01-29T07:32:33.097Z,22.73
2019-01-29T07:34:59.848Z,26.47
2019-01-29T07:37:26.575Z,18.43
2019-01-29T07:39:53.315Z,16.70
2019-01-29T07:42:20.052Z,16.70
2019-01-29T07:44:46.806Z,20.37
2019-01-29T07:47:13.531Z,16.13
2019-01-29T07:49:40.490Z,15.73
2019-01-29T07:52:07.226Z,19.77
2019-01-29T07:54:33.971Z,23.50
2019-01-29T07:57:00.814Z,25.13
2019-01-29T07:59:33.268Z,24.70
2019-01-29T08:01:56.025Z,23.20
2019-01-29T08:04:22.881Z,20.80
2019-01-29T08:06:49.713Z,20.33
2019-01-29T08:09:16.546Z,27.93
2019-01-29T08:11:43.288Z,22.73
2019-01-29T08:14:10.018Z,18.43
2019-01-29T08:16:36.768Z,22.97
2019-01-29T08:19:03.513Z,25.87
2019-01-29T08:21:30.276Z,23.37
2019-01-29T08:23:56.992Z,24.63
2019-01-29T08:26:23.831Z,23.63
2019-01-29T08:28:50.673Z,21.20
2019-01-29T08:31:17.512Z,16.10
2019-01-29T08:33:44.346Z,20.10
2019-01-29T08:36:11.098Z,19.17
2019-01-29T08:38:37.853Z,26.53
2019-01-29T08:41:04.636Z,24.50
2019-01-29T08:43:31.515Z,25.93
2019-01-29T08:45:59.556Z,29.73
2019-01-29T08:48:26.316Z,24.57
2019-01-29T08:50:53.068Z,23.23
2019-01-29T08:53:19.912Z,24.20
2019-01-29T08:55:46.646Z,20.77
2019-01-29T08:58:13.488Z,22.37
2019-01-29T09:00:40.745Z,25.80
2019-01-29T09:03:07.944Z,24.77
2019-01-29T09:05:34.943Z,27.77
2019-01-29T09:08:01.780Z,27.93
2019-01-29T09:10:28.568Z,28.33
2019-01-29T09:12:55.324Z,26.67
2019-01-29T09:15:22.098Z,25.60
2019-01-29T09:17:48.843Z,28.80
2019-01-29T09:20:15.676Z,30.43
2019-01-29T09:22:42.434Z,28.20
2019-01-29T09:25:09.156Z,25.03
2019-01-29T09:27:35.894Z,30.03
2019-01-29T09:30:02.736Z,28.13
2019-01-29T09:32:29.577Z,30.50
2019-01-29T09:34:56.412Z,31.13
2019-01-29T09:37:23.160Z,33.70
2019-01-29T09:39:49.892Z,29.73
2019-01-29T09:42:16.637Z,30.53
2019-01-29T09:44:43.325Z,32.93
2019-01-29T09:47:10.122Z,32.27
2019-01-29T09:49:36.867Z,34.77
2019-01-29T09:52:03.751Z,32.87
2019-01-29T09:54:30.696Z,34.87
2019-01-29T09:56:57.381Z,30.17
2019-01-29T09:59:24.227Z,28.43
2019-01-29T10:01:50.965Z,27.63
2019-01-29T10:04:17.693Z,29.43
2019-01-29T10:06:44.595Z,27.23
2019-01-29T10:09:11.381Z,30.80
2019-01-29T10:11:38.327Z,25.40
2019-01-29T10:14:05.066Z,24.60
2019-01-29T10:16:31.806Z,25.43
2019-01-29T10:18:58.648Z,20.03
2019-01-29T10:21:25.488Z,19.00
2019-01-29T10:23:52.321Z,19.03
2019-01-29T10:26:18.960Z,18.00
2019-01-29T10:28:45.705Z,17.27
2019-01-29T10:31:12.556Z,17.50
2019-01-29T10:33:39.281Z,12.93
2019-01-29T10:36:06.159Z,19.10
2019-01-29T10:38:32.866Z,13.67
2019-01-29T10:40:59.609Z,14.40
2019-01-29T10:43:26.351Z,12.60
2019-01-29T10:45:53.191Z,13.37
2019-01-29T10:48:19.930Z,11.67
2019-01-29T10:50:46.979Z,15.37
2019-01-29T10:53:13.824Z,14.43
2019-01-29T10:55:47.013Z,14.17
2019-01-29T10:58:09.149Z,12.97
2019-01-29T11:00:36.061Z,12.30
2019-01-29T11:03:02.822Z,13.87
2019-01-29T11:05:29.558Z,16.13
2019-01-29T11:07:56.400Z,11.93
2019-01-29T11:10:23.139Z,15.77
2019-01-29T11:12:49.936Z,17.60
2019-01-29T11:15:16.723Z,19.70
2019-01-29T11:17:43.451Z,14.93
2019-01-29T11:20:10.107Z,15.70
2019-01-29T11:22:36.945Z,15.10
2019-01-29T11:25:03.776Z,18.87
2019-01-29T11:27:31.083Z,15.33
2019-01-29T11:29:57.875Z,18.70
2019-01-29T11:32:24.603Z,21.50
2019-01-29T11:34:51.356Z,20.10
2019-01-29T11:37:18.199Z,17.67
2019-01-29T11:39:44.925Z,16.53
2019-01-29T11:42:11.786Z,21.43
2019-01-29T11:44:38.623Z,20.23
2019-01-29T11:47:06.569Z,19.87
2019-01-29T11:49:33.830Z,20.67
2019-01-29T11:52:00.568Z,20.20
2019-01-29T11:54:27.202Z,18.40
2019-01-29T11:56:53.954Z,21.10
2019-01-29T11:59:20.695Z,20.33
2019-01-29T12:01:47.523Z,23.20
2019-01-29T12:04:14.228Z,21.53
2019-01-29T12:06:40.900Z,19.57
2019-01-29T12:09:07.598Z,24.10
2019-01-29T12:11:34.687Z,19.30
2019-01-29T12:14:01.535Z,19.83
2019-01-29T12:16:28.282Z,23.93
2019-01-29T12:18:55.005Z,25.50
2019-01-29T12:21:21.747Z,29.17
2019-01-29T12:23:48.491Z,18.73
2019-01-29T12:26:15.342Z,22.07
2019-01-29T12:28:42.063Z,19.40
2019-01-29T12:31:08.812Z,21.03
2019-01-29T12:33:35.543Z,17.60
2019-01-29T12:36:02.282Z,22.60
2019-01-29T12:38:29.127Z,24.70
2019-01-29T12:40:55.876Z,18.27
2019-01-29T12:43:22.713Z,20.83
2019-01-29T12:45:49.443Z,21.10
2019-01-29T12:48:16.194Z,19.43
2019-01-29T12:50:43.025Z,19.50
2019-01-29T12:53:09.879Z,16.97
2019-01-29T12:55:36.819Z,17.77
2019-01-29T12:58:03.557Z,21.17
2019-01-29T13:00:30.288Z,18.30
2019-01-29T13:02:57.540Z,14.43
2019-01-29T13:05:24.288Z,14.50
2019-01-29T13:07:51.025Z,18.63
2019-01-29T13:10:17.871Z,14.80
2019-01-29T13:12:44.712Z,14.40
2019-01-29T13:15:11.748Z,19.23
2019-01-29T13:17:38.491Z,18.60
2019-01-29T13:20:05.126Z,18.73
2019-01-29T13:22:31.878Z,14.37
2019-01-29T13:24:58.722Z,17.67
2019-01-29T13:27:25.556Z,14.97
2019-01-29T13:29:52.286Z,13.30
2019-01-29T13:32:19.030Z,15.50
2019-01-29T13:34:45.876Z,16.50
2019-01-29T13:37:12.616Z,15.50
2019-01-29T13:39:39.455Z,12.20
2019-01-29T13:42:06.201Z,11.27
2019-01-29T13:44:33.041Z,11.17
2019-01-29T13:46:59.772Z,11.93
2019-01-29T13:49:26.509Z,13.20
2019-01-29T13:51:53.261Z,13.13
2019-01-29T13:54:19.915Z,12.20
2019-01-29T13:56:46.740Z,14.13
2019-01-29T13:59:13.467Z,14.67
2019-01-29T14:01:40.215Z,14.63
2019-01-29T14:04:07.044Z,15.60
2019-01-29T14:06:33.804Z,14.53
2019-01-29T14:09:00.739Z,18.63
2019-01-29T14:11:27.467Z,16.97
2019-01-29T14:13:54.217Z,14.43
2019-01-29T14:16:21.219Z,17.70
2019-01-29T14:18:48.002Z,18.43
2019-01-29T14:21:14.738Z,16.33
2019-01-29T14:23:41.431Z,14.07
2019-01-29T14:26:08.210Z,18.40
2019-01-29T14:28:36.541Z,16.00
2019-01-29T14:31:03.562Z,22.10
2019-01-29T14:33:30.376Z,22.87
2019-01-29T14:35:57.118Z,20.10
2019-01-29T14:38:23.868Z,22.10
2019-01-29T14:40:50.710Z,20.80
2019-01-29T14:43:17.434Z,22.10
2019-01-29T14:45:44.174Z,23.00
2019-01-29T14:48:10.925Z,17.73
2019-01-29T14:50:37.611Z,21.97
2019-01-29T14:53:04.670Z,23.43
2019-01-29T14:55:31.456Z,19.17
2019-01-29T14:57:58.578Z,24.07
2019-01-29T15:00:25.843Z,23.90
2019-01-29T15:02:52.838Z,21.93
2019-01-29T15:05:19.642Z,23.93
2019-01-29T15:07:46.472Z,24.53
2019-01-29T15:10:13.319Z,20.97
2019-01-29T15:12:40.159Z,23.10
2019-01-29T15:15:07.003Z,26.53
2019-01-29T15:17:34.147Z,21.77
2019-01-29T15:20:00.889Z,25.97
2019-01-29T15:22:28.033Z,20.93
2019-01-29T15:24:54.771Z,23.63
2019-01-29T15:27:23.433Z,22.87
2019-01-29T15:29:50.015Z,19.73
2019-01-29T15:32:16.989Z,17.80
2019-01-29T15:34:43.783Z,18.00
2019-01-29T15:37:10.509Z,19.17
2019-01-29T15:39:37.150Z,20.60
2019-01-29T15:42:04.006Z,16.57
2019-01-29T15:44:30.728Z,17.70
2019-01-29T15:46:57.520Z,17.33
2019-01-29T15:49:24.320Z,22.57
2019-01-29T15:51:51.053Z,17.90
2019-01-29T15:54:17.891Z,16.47
2019-01-29T15:56:44.640Z,17.87
2019-01-29T15:59:11.329Z,17.43
2019-01-29T16:01:38.007Z,20.57
2019-01-29T16:04:04.642Z,19.57
2019-01-29T16:06:31.392Z,19.73
2019-01-29T16:08:58.120Z,19.07
2019-01-29T16:11:24.759Z,20.10
2019-01-29T16:13:51.509Z,19.90
2019-01-29T16:16:18.237Z,23.03
2019-01-29T16:18:45.490Z,22.50
2019-01-29T16:21:12.240Z,17.23
2019-01-29T16:23:38.978Z,20.60
2019-01-29T16:26:05.818Z,21.13
2019-01-29T16:28:32.556Z,21.33
2019-01-29T16:30:59.303Z,18.43
2019-01-29T16:33:26.025Z,21.27
2019-01-29T16:35:52.775Z,17.20
2019-01-29T16:38:19.516Z,16.10
2019-01-29T16:40:46.252Z,23.30
2019-01-29T16:43:13.100Z,23.40
2019-01-29T16:45:39.827Z,19.97
2019-01-29T16:48:06.574Z,18.43
2019-01-29T16:50:33.421Z,23.53
2019-01-29T16:53:00.261Z,19.37
2019-01-29T16:55:27.091Z,20.37
2019-01-29T16:57:53.842Z,18.53
2019-01-29T17:00:23.748Z,21.93
2019-01-29T17:02:50.592Z,23.73
2019-01-29T17:05:17.324Z,20.27
2019-01-29T17:07:44.198Z,25.03
2019-01-29T17:10:10.908Z,22.10
2019-01-29T17:12:37.660Z,22.57
2019-01-29T17:15:04.383Z,19.27
2019-01-29T17:17:31.225Z,21.60
2019-01-29T17:19:57.972Z,21.30
2019-01-29T17:22:24.700Z,16.43
2019-01-29T17:24:51.526Z,20.87
2019-01-29T17:27:18.399Z,20.73
2019-01-29T17:29:45.086Z,22.87
2019-01-29T17:32:11.998Z,18.37
2019-01-29T17:34:38.697Z,16.03
2019-01-29T17:37:05.447Z,17.10
2019-01-29T17:39:32.193Z,19.07
2019-01-29T17:41:59.040Z,23.87
2019-01-29T17:44:25.779Z,24.37
2019-01-29T17:46:53.223Z,19.87
2019-01-29T17:49:19.962Z,23.17
2019-01-29T17:51:46.699Z,25.50
2019-01-29T17:54:13.439Z,24.37
2019-01-29T17:56:40.199Z,27.77
2019-01-29T17:59:07.126Z,36.47
2019-01-29T18:01:33.863Z,25.47
2019-01-29T18:04:00.608Z,26.27
2019-01-29T18:06:28.893Z,22.77
2019-01-29T18:08:56.303Z,28.10
2019-01-29T18:11:23.596Z,28.80
2019-01-29T18:13:50.973Z,20.37
2019-01-29T18:16:18.093Z,24.27
2019-01-29T18:18:44.829Z,20.00
2019-01-29T18:21:13.373Z,21.97
2019-01-29T18:23:40.220Z,19.03
2019-01-29T18:26:06.991Z,19.20
2019-01-29T18:28:33.742Z,19.77
2019-01-29T18:31:00.477Z,14.47
2019-01-29T18:33:27.320Z,15.07
2019-01-29T18:35:54.068Z,23.67
2019-01-29T18:38:20.797Z,21.03
2019-01-29T18:40:47.540Z,16.00
2019-01-29T18:43:14.301Z,14.47
2019-01-29T18:45:41.128Z,12.10
2019-01-29T18:48:07.847Z,12.87
2019-01-29T18:50:34.598Z,13.53
2019-01-29T18:53:01.324Z,15.90
2019-01-29T18:55:28.073Z,16.30
2019-01-29T18:57:54.910Z,18.93
2019-01-29T19:00:21.648Z,19.50
2019-01-29T19:02:48.451Z,13.93
2019-01-29T19:05:15.230Z,15.70
2019-01-29T19:07:41.981Z,13.33
2019-01-29T19:10:10.460Z,16.47
2019-01-29T19:12:37.185Z,15.53
2019-01-29T19:15:03.829Z,12.67
2019-01-29T19:17:30.671Z,11.53
2019-01-29T19:19:57.618Z,13.30
2019-01-29T19:22:24.480Z,15.30
2019-01-29T19:24:51.300Z,15.13
2019-01-29T19:27:18.040Z,14.47
2019-01-29T19:29:44.883Z,13.37
2019-01-29T19:32:11.816Z,15.57
2019-01-29T19:34:38.556Z,23.60
2019-01-29T19:37:05.313Z,23.10
2019-01-29T19:39:32.147Z,21.27
2019-01-29T19:41:58.875Z,18.17
2019-01-29T19:44:25.646Z,16.83
2019-01-29T19:46:52.484Z,21.90
2019-01-29T19:49:19.212Z,26.00
2019-01-29T19:51:46.148Z,19.50
2019-01-29T19:54:12.877Z,16.27
2019-01-29T19:56:39.515Z,15.40
2019-01-29T19:59:07.529Z,18.40
2019-01-29T20:01:34.538Z,11.60
2019-01-29T20:04:01.278Z,16.07
2019-01-29T20:06:28.018Z,20.93
2019-01-29T20:08:54.746Z,14.73
2019-01-29T20:11:21.495Z,15.17
2019-01-29T20:13:48.241Z,16.97
2019-01-29T20:16:14.971Z,22.80
2019-01-29T20:18:41.815Z,21.53
2019-01-29T20:21:08.659Z,14.67
2019-01-29T20:23:35.490Z,16.37
2019-01-29T20:26:02.128Z,19.10
2019-01-29T20:28:28.877Z,19.07
2019-01-29T20:30:55.607Z,23.90
2019-01-29T20:33:22.561Z,18.67
2019-01-29T20:35:49.709Z,18.47
2019-01-29T20:38:16.760Z,19.27
2019-01-29T20:40:43.503Z,18.10
2019-01-29T20:43:10.439Z,20.77
2019-01-29T20:45:37.321Z,19.97
2019-01-29T20:48:04.333Z,20.43
2019-01-29T20:50:31.063Z,18.70
2019-01-29T20:52:57.810Z,18.50
2019-01-29T20:55:24.543Z,17.30
2019-01-29T20:57:51.272Z,18.30
2019-01-29T21:00:18.012Z,17.53
2019-01-29T21:02:44.762Z,18.87
2019-01-29T21:05:11.603Z,27.73
2019-01-29T21:07:38.445Z,26.90
2019-01-29T21:10:05.190Z,21.50
2019-01-29T21:12:32.020Z,16.93
2019-01-29T21:15:01.061Z,18.17
2019-01-29T21:17:27.143Z,18.13
2019-01-29T21:19:53.985Z,21.77
2019-01-29T21:22:20.840Z,17.77
2019-01-29T21:24:47.676Z,21.13
2019-01-29T21:27:14.405Z,23.03
2019-01-29T21:29:41.147Z,20.10
2019-01-29T21:32:07.889Z,22.73
2019-01-29T21:34:34.626Z,21.20
2019-01-29T21:37:01.459Z,19.20
2019-01-29T21:39:28.207Z,18.93
2019-01-29T21:41:54.938Z,24.47
2019-01-29T21:44:21.679Z,23.63
2019-01-29T21:46:48.426Z,23.40
2019-01-29T21:49:15.270Z,19.87
2019-01-29T21:51:42.001Z,25.83
2019-01-29T21:54:08.842Z,25.40
2019-01-29T21:56:35.689Z,22.13
2019-01-29T21:59:12.900Z,22.77
2019-01-29T22:01:31.327Z,21.00
2019-01-29T22:03:58.084Z,22.17
2019-01-29T22:06:24.789Z,19.70
2019-01-29T22:08:51.541Z,25.57
2019-01-29T22:11:18.481Z,28.70
2019-01-29T22:13:45.735Z,26.77
2019-01-29T22:16:12.486Z,24.57
2019-01-29T22:18:39.198Z,23.67
2019-01-29T22:21:05.949Z,25.97
2019-01-29T22:23:32.691Z,29.30
2019-01-29T22:26:01.757Z,28.37
2019-01-29T22:28:28.512Z,27.43
2019-01-29T22:30:55.149Z,27.10
2019-01-29T22:33:22.009Z,30.30
2019-01-29T22:35:48.741Z,31.80
2019-01-29T22:38:15.581Z,31.33
2019-01-29T22:40:42.483Z,30.23
2019-01-29T22:43:09.255Z,33.63
2019-01-29T22:45:35.928Z,41.63
2019-01-29T22:48:04.535Z,34.40
2019-01-29T22:50:31.127Z,31.50
2019-01-29T22:52:58.020Z,31.23
2019-01-29T22:55:24.693Z,34.33
2019-01-29T22:57:51.443Z,32.40
2019-01-29T23:00:18.176Z,30.77
2019-01-29T23:02:45.011Z,24.90
2019-01-29T23:05:11.760Z,25.90
2019-01-29T23:07:38.450Z,30.73
2019-01-29T23:10:05.130Z,23.73
2019-01-29T23:12:31.888Z,29.97
2019-01-29T23:14:58.711Z,23.27
2019-01-29T23:17:25.463Z,15.40
2019-01-29T23:19:52.299Z,18.23
2019-01-29T23:22:19.029Z,16.43
2019-01-29T23:24:45.779Z,19.80
2019-01-29T23:27:12.608Z,18.40
2019-01-29T23:29:43.700Z,17.33
2019-01-29T23:32:07.736Z,15.87
2019-01-29T23:34:34.580Z,13.73
2019-01-29T23:37:01.310Z,9.57
2019-01-29T23:39:28.148Z,14.17
2019-01-29T23:41:54.893Z,11.67
2019-01-29T23:44:21.627Z,11.83
2019-01-29T23:46:48.379Z,13.80
2019-01-29T23:49:15.117Z,14.50
2019-01-29T23:51:41.858Z,13.57
2019-01-29T23:54:08.583Z,16.60
2019-01-29T23:56:35.338Z,11.40
2019-01-29T23:59:02.078Z,16.57
